createdAt,value
2024-01-26T00:04:00.425Z,1.10
2024-01-26T00:09:23.847Z,1.25
2024-01-26T00:14:46.712Z,1.10
2024-01-26T00:20:09.921Z,1.08
2024-01-26T00:25:32.301Z,1.00
2024-01-26T00:30:55.677Z,1.02
2024-01-26T00:36:19.797Z,0.60
2024-01-26T00:41:42.749Z,1.40
2024-01-26T00:47:05.581Z,2.50
2024-01-26T00:52:29.334Z,1.98
2024-01-26T00:57:52.793Z,1.05
2024-01-26T01:03:16.880Z,1.20
2024-01-26T01:08:39.332Z,1.90
2024-01-26T01:14:02.376Z,1.45
2024-01-26T01:19:25.658Z,1.08
2024-01-26T01:24:48.744Z,0.88
2024-01-26T01:30:11.364Z,1.13
2024-01-26T01:35:34.294Z,0.80
2024-01-26T01:40:58.542Z,1.02
2024-01-26T01:46:22.015Z,1.10
2024-01-26T01:51:47.277Z,1.10
2024-01-26T01:57:12.448Z,1.13
2024-01-26T02:02:44.025Z,1.40
2024-01-26T02:08:07.800Z,1.48
2024-01-26T02:13:30.225Z,1.02
2024-01-26T02:18:53.799Z,1.30
2024-01-26T02:24:16.918Z,1.10
2024-01-26T02:29:39.249Z,1.10
2024-01-26T02:35:02.313Z,0.75
2024-01-26T02:40:25.571Z,0.80
2024-01-26T02:45:51.862Z,1.23
2024-01-26T02:51:14.682Z,0.60
2024-01-26T02:56:37.248Z,0.90
2024-01-26T03:02:00.635Z,1.05
2024-01-26T03:07:23.525Z,1.27
2024-01-26T03:12:46.548Z,0.88
2024-01-26T03:18:09.813Z,0.90
2024-01-26T03:23:32.257Z,1.35
2024-01-26T03:28:55.442Z,1.88
2024-01-26T03:34:18.763Z,0.85
2024-01-26T03:39:41.241Z,1.00
2024-01-26T03:45:04.263Z,1.10
2024-01-26T03:50:28.229Z,0.88
2024-01-26T03:55:51.447Z,0.88
2024-01-26T04:01:14.965Z,0.95
2024-01-26T04:06:38.395Z,1.25
2024-01-26T04:12:01.604Z,0.82
2024-01-26T04:17:24.701Z,1.10
2024-01-26T04:22:47.209Z,1.60
2024-01-26T04:28:10.543Z,1.83
2024-01-26T04:33:33.290Z,1.65
2024-01-26T04:38:56.905Z,1.90
2024-01-26T04:44:20.837Z,1.42
2024-01-26T04:49:43.228Z,1.58
2024-01-26T04:55:06.219Z,2.20
2024-01-26T05:00:30.833Z,2.10
2024-01-26T05:05:54.699Z,1.90
2024-01-26T05:11:17.214Z,1.27
2024-01-26T05:16:40.170Z,1.58
2024-01-26T05:22:03.402Z,1.65
2024-01-26T05:27:26.441Z,1.88
2024-01-26T05:32:50.495Z,2.15
2024-01-26T05:38:13.527Z,2.83
2024-01-26T05:43:36.235Z,1.48
2024-01-26T05:48:59.707Z,1.10
2024-01-26T05:54:22.713Z,1.13
2024-01-26T05:59:46.315Z,1.30
2024-01-26T06:05:09.195Z,1.30
2024-01-26T06:10:32.657Z,2.00
2024-01-26T06:15:56.650Z,5.70
2024-01-26T06:21:19.562Z,6.40
2024-01-26T06:26:42.493Z,3.35
2024-01-26T06:32:05.132Z,2.35
2024-01-26T06:37:29.733Z,3.40
2024-01-26T06:42:56.686Z,3.00
2024-01-26T06:48:19.618Z,2.25
2024-01-26T06:53:42.612Z,2.90
2024-01-26T06:59:05.150Z,2.60
2024-01-26T07:04:28.574Z,2.47
2024-01-26T07:09:51.510Z,3.10
2024-01-26T07:15:14.184Z,3.38
2024-01-26T07:20:39.414Z,3.45
2024-01-26T07:26:02.643Z,3.83
2024-01-26T07:31:28.991Z,3.60
2024-01-26T07:36:52.089Z,5.55
2024-01-26T07:42:15.346Z,5.63
2024-01-26T07:47:38.308Z,12.23
2024-01-26T07:53:01.737Z,16.92
2024-01-26T07:58:24.495Z,31.60
2024-01-26T08:03:48.534Z,23.20
2024-01-26T08:09:13.083Z,22.77
2024-01-26T08:14:37.095Z,25.23
2024-01-26T08:20:00.519Z,18.45
2024-01-26T08:25:23.825Z,18.35
2024-01-26T08:30:50.199Z,18.37
2024-01-26T08:36:13.291Z,8.02
2024-01-26T08:41:37.797Z,7.18
2024-01-26T08:47:03.473Z,8.48
2024-01-26T08:52:26.116Z,6.22
2024-01-26T08:57:51.091Z,4.47
2024-01-26T09:08:40.645Z,9.52
2024-01-26T09:14:03.716Z,3.08
2024-01-26T09:19:26.719Z,3.75
2024-01-26T09:24:50.507Z,2.90
2024-01-26T09:30:14.552Z,3.13
2024-01-26T09:35:38.415Z,2.45
2024-01-26T09:41:08.611Z,2.58
2024-01-26T09:46:32.384Z,2.72
2024-01-26T09:51:56.364Z,3.08
2024-01-26T09:57:20.262Z,2.50
2024-01-26T10:02:43.726Z,2.95
2024-01-26T10:08:08.289Z,2.53
2024-01-26T10:13:31.491Z,4.65
2024-01-26T10:19:13.183Z,6.72
2024-01-26T10:24:40.139Z,3.10
2024-01-26T10:30:05.051Z,4.00
2024-01-26T10:35:29.038Z,3.15
2024-01-26T10:40:52.978Z,2.88
2024-01-26T10:46:17.984Z,3.55
2024-01-26T10:51:46.163Z,2.70
2024-01-26T10:57:18.013Z,2.33
2024-01-26T11:02:45.134Z,2.75
2024-01-26T11:08:07.994Z,2.00
2024-01-26T11:13:31.978Z,2.78
2024-01-26T11:18:55.166Z,3.60
2024-01-26T11:24:24.064Z,2.88
2024-01-26T11:29:52.047Z,3.17
2024-01-26T11:35:23.953Z,2.55
2024-01-26T11:40:47.066Z,5.07
2024-01-26T11:46:09.976Z,5.05
2024-01-26T11:51:32.997Z,3.28
2024-01-26T11:56:56.031Z,2.58
2024-01-26T12:02:18.963Z,3.13
2024-01-26T12:07:41.985Z,3.22
2024-01-26T12:13:06.726Z,7.15
2024-01-26T12:18:32.171Z,3.97
2024-01-26T12:24:03.969Z,6.18
2024-01-26T12:29:27.923Z,3.30
2024-01-26T12:34:55.253Z,5.22
2024-01-26T12:40:17.938Z,3.00
2024-01-26T12:45:40.968Z,1.30
2024-01-26T12:51:03.927Z,5.68
2024-01-26T12:56:26.990Z,11.02
2024-01-26T13:01:50.961Z,3.38
2024-01-26T13:07:15.023Z,2.10
2024-01-26T13:12:37.988Z,2.20
2024-01-26T13:18:01.591Z,1.20
2024-01-26T13:23:24.935Z,2.93
2024-01-26T13:28:47.922Z,3.65
2024-01-26T13:34:10.990Z,2.10
2024-01-26T13:39:33.976Z,2.00
2024-01-26T13:44:56.951Z,3.45
2024-01-26T13:50:22.039Z,2.45
2024-01-26T13:55:44.926Z,5.50
2024-01-26T14:01:09.392Z,4.57
2024-01-26T14:06:34.344Z,2.53
2024-01-26T14:11:58.047Z,2.20
2024-01-26T14:17:23.158Z,2.10
2024-01-26T14:22:45.879Z,2.47
2024-01-26T14:28:10.872Z,3.03
2024-01-26T14:33:33.996Z,4.47
2024-01-26T14:38:56.954Z,5.65
2024-01-26T14:44:20.124Z,7.20
2024-01-26T14:49:42.962Z,2.45
2024-01-26T14:55:05.866Z,3.20
2024-01-26T15:00:31.061Z,3.35
2024-01-26T15:11:16.882Z,3.38
2024-01-26T15:16:41.900Z,4.90
2024-01-26T15:27:31.883Z,4.55
2024-01-26T15:32:54.953Z,3.83
2024-01-26T15:38:17.930Z,3.25
2024-01-26T15:43:47.849Z,3.90
2024-01-26T15:49:32.097Z,4.50
2024-01-26T15:54:54.833Z,5.25
2024-01-26T16:00:19.896Z,4.88
2024-01-26T16:05:42.936Z,5.18
2024-01-26T16:11:07.875Z,4.90
2024-01-26T16:16:31.928Z,7.78
2024-01-26T16:21:54.933Z,3.78
2024-01-26T16:27:17.870Z,2.45
2024-01-26T16:32:42.021Z,3.92
2024-01-26T16:38:04.825Z,3.70
2024-01-26T16:43:29.388Z,5.10
2024-01-26T16:48:54.116Z,4.93
2024-01-26T16:54:16.964Z,4.80
2024-01-26T16:59:39.975Z,5.03
2024-01-26T17:05:02.844Z,4.20
2024-01-26T17:10:26.861Z,4.88
2024-01-26T17:15:49.836Z,3.97
2024-01-26T17:21:12.814Z,4.88
2024-01-26T17:26:35.809Z,3.15
2024-01-26T17:31:59.073Z,5.63
2024-01-26T17:37:22.036Z,5.72
2024-01-26T17:42:44.785Z,5.88
2024-01-26T17:48:07.983Z,3.70
2024-01-26T17:53:30.820Z,5.10
2024-01-26T17:58:53.781Z,3.40
2024-01-26T18:04:16.818Z,3.05
2024-01-26T18:09:39.767Z,8.35
2024-01-26T18:15:02.834Z,11.70
2024-01-26T18:20:25.814Z,5.28
2024-01-26T18:25:54.767Z,4.10
2024-01-26T18:31:19.323Z,7.13
2024-01-26T18:36:42.816Z,5.45
2024-01-26T18:42:05.837Z,3.90
2024-01-26T18:47:28.740Z,3.65
2024-01-26T18:52:51.783Z,3.80
2024-01-26T18:58:14.753Z,3.22
2024-01-26T19:03:37.987Z,3.17
2024-01-26T19:09:00.793Z,3.92
2024-01-26T19:14:23.744Z,3.40
2024-01-26T19:19:49.755Z,2.45
2024-01-26T19:25:13.754Z,2.33
2024-01-26T19:30:37.041Z,1.75
2024-01-26T19:35:59.751Z,1.63
2024-01-26T19:41:22.754Z,2.75
2024-01-26T19:46:45.749Z,2.58
2024-01-26T19:52:08.780Z,4.30
2024-01-26T19:57:31.762Z,3.28
2024-01-26T20:02:54.871Z,3.33
2024-01-26T20:08:17.714Z,4.03
2024-01-26T20:13:40.740Z,4.40
2024-01-26T20:19:03.901Z,3.20
2024-01-26T20:24:26.836Z,4.13
2024-01-26T20:29:49.752Z,2.10
2024-01-26T20:35:12.824Z,4.60
2024-01-26T20:40:36.744Z,2.60
2024-01-26T20:45:59.839Z,3.08
2024-01-26T20:51:22.783Z,3.55
2024-01-26T20:56:45.852Z,2.40
2024-01-26T21:02:08.697Z,3.47
2024-01-26T21:07:31.700Z,4.03
2024-01-26T21:12:54.667Z,3.53
2024-01-26T21:18:17.847Z,3.35
2024-01-26T21:24:03.712Z,2.78
2024-01-26T21:29:26.704Z,2.45
2024-01-26T21:34:49.914Z,1.60
2024-01-26T21:40:12.654Z,1.30
2024-01-26T21:45:35.716Z,1.67
2024-01-26T21:50:58.692Z,1.50
2024-01-26T21:56:22.665Z,1.45
2024-01-26T22:07:22.715Z,1.65
2024-01-26T22:12:45.722Z,1.80
2024-01-26T22:18:08.834Z,1.83
2024-01-26T22:23:31.655Z,1.50
2024-01-26T22:28:54.654Z,1.45
2024-01-26T22:34:17.690Z,1.85
2024-01-26T22:39:40.679Z,1.40
2024-01-26T22:45:03.701Z,1.88
2024-01-26T22:50:26.750Z,1.70
2024-01-26T22:55:49.605Z,1.05
2024-01-26T23:01:12.710Z,1.77
2024-01-26T23:06:35.686Z,1.35
2024-01-26T23:11:58.627Z,1.58
2024-01-26T23:17:21.619Z,1.65
2024-01-26T23:22:45.628Z,2.00
2024-01-26T23:28:08.649Z,1.58
2024-01-26T23:33:31.762Z,1.98
2024-01-26T23:38:54.671Z,1.55
2024-01-26T23:44:17.610Z,1.85
2024-01-26T23:49:40.729Z,1.85
2024-01-26T23:55:04.598Z,2.38
